createdAt,value
2017-11-29T18:17:49.740Z,1.58
2017-11-29T18:20:18.002Z,1.44
2017-11-29T18:22:46.424Z,1.36
2017-11-29T18:25:14.729Z,1.30
2017-11-29T18:27:42.990Z,1.28
2017-11-29T18:30:11.252Z,1.20
2017-11-29T18:32:40.279Z,1.30
2017-11-29T18:35:08.565Z,1.31
2017-11-29T18:37:36.900Z,1.29
2017-11-29T18:40:05.199Z,1.28
2017-11-29T18:42:33.455Z,1.15
2017-11-29T18:45:02.479Z,1.11
2017-11-29T18:47:30.731Z,1.13
2017-11-29T18:49:58.998Z,1.05
2017-11-29T18:52:27.316Z,1.11
2017-11-29T18:54:55.583Z,0.99
2017-11-29T18:57:23.843Z,1.01
2017-11-29T18:59:52.106Z,1.04
2017-11-29T19:02:20.384Z,1.06
2017-11-29T19:04:48.659Z,1.02
2017-11-29T19:07:17.666Z,1.13
2017-11-29T19:09:45.935Z,1.12
2017-11-29T19:12:14.192Z,0.99
2017-11-29T19:14:43.223Z,1.00
2017-11-29T19:17:11.481Z,0.93
2017-11-29T19:19:39.740Z,0.91
2017-11-29T19:22:08.764Z,0.95
2017-11-29T19:24:37.011Z,0.99
2017-11-29T19:27:05.373Z,1.02
2017-11-29T19:29:34.403Z,0.78
2017-11-29T19:32:02.675Z,0.75
2017-11-29T19:34:31.576Z,0.77
2017-11-29T19:36:59.844Z,0.77
2017-11-29T19:39:30.063Z,0.75
2017-11-29T19:41:58.348Z,0.74
2017-11-29T19:44:27.370Z,0.72
2017-11-29T19:47:09.204Z,0.69
2017-11-29T19:49:39.382Z,0.61
2017-11-29T19:52:07.672Z,0.68
2017-11-29T19:54:35.927Z,0.58
2017-11-29T19:57:04.199Z,0.35
2017-11-29T19:59:32.475Z,0.26
2017-11-29T20:02:00.734Z,0.19
2017-11-29T20:04:28.983Z,0.20
2017-11-29T20:07:05.163Z,-0.01
2017-11-29T20:09:33.606Z,0.04
2017-11-29T20:12:02.003Z,-0.06
2017-11-29T20:14:31.111Z,-0.12
2017-11-29T20:16:59.385Z,-0.24
2017-11-29T20:19:27.645Z,-0.26
2017-11-29T20:21:57.009Z,-0.26
2017-11-29T20:24:25.343Z,-0.24
2017-11-29T20:26:53.768Z,-0.23
2017-11-29T20:29:22.147Z,-0.27
2017-11-29T20:31:50.551Z,-0.28
2017-11-29T20:34:19.669Z,-0.32
2017-11-29T20:36:48.065Z,-0.39
2017-11-29T20:39:16.463Z,-0.50
2017-11-29T20:41:44.820Z,-0.46
2017-11-29T20:44:13.177Z,-0.35
2017-11-29T20:46:41.533Z,-0.27
2017-11-29T20:49:10.657Z,-0.14
2017-11-29T20:51:38.979Z,-0.02
2017-11-29T20:54:07.242Z,-0.05
2017-11-29T20:56:35.507Z,0.00
2017-11-29T20:59:03.771Z,0.03
2017-11-29T21:01:32.089Z,0.07
2017-11-29T21:04:00.359Z,-0.02
2017-11-29T21:06:28.624Z,-0.18
2017-11-29T21:08:57.052Z,-0.23
2017-11-29T21:11:26.291Z,-0.34
2017-11-29T21:13:54.556Z,-0.37
2017-11-29T21:16:22.826Z,-0.34
2017-11-29T21:18:51.146Z,-0.19
2017-11-29T21:21:19.407Z,-0.21
2017-11-29T21:23:47.681Z,-0.16
2017-11-29T21:26:16.026Z,-0.28
2017-11-29T21:28:44.305Z,-0.30
2017-11-29T21:31:12.572Z,-0.19
2017-11-29T21:33:41.617Z,0.04
2017-11-29T21:36:09.879Z,0.07
2017-11-29T21:38:38.134Z,0.05
2017-11-29T21:41:06.603Z,0.09
2017-11-29T21:43:34.859Z,0.06
2017-11-29T21:46:03.893Z,0.01
2017-11-29T21:48:32.150Z,0.01
2017-11-29T21:51:00.421Z,0.11
2017-11-29T21:53:28.685Z,0.12
2017-11-29T21:55:57.712Z,0.05
2017-11-29T21:58:25.972Z,0.07
2017-11-29T22:00:54.243Z,0.17
2017-11-29T22:03:22.508Z,0.20
2017-11-29T22:05:51.579Z,0.13
2017-11-29T22:08:19.847Z,0.07
2017-11-29T22:10:48.108Z,0.01
2017-11-29T22:13:16.384Z,0.04
2017-11-29T22:15:44.679Z,0.01
2017-11-29T22:18:12.879Z,0.11
2017-11-29T22:20:41.918Z,0.15
2017-11-29T22:23:10.166Z,0.15
2017-11-29T22:25:38.437Z,0.09
2017-11-29T22:28:06.730Z,0.01
2017-11-29T22:30:35.809Z,0.10
2017-11-29T22:33:04.834Z,-0.01
2017-11-29T22:35:33.109Z,0.03
2017-11-29T22:38:01.363Z,0.06
2017-11-29T22:40:29.631Z,0.21
2017-11-29T22:42:57.890Z,0.20
2017-11-29T22:45:26.926Z,0.35
2017-11-29T22:47:55.183Z,0.42
2017-11-29T22:50:23.439Z,0.39
2017-11-29T22:52:52.476Z,0.44
2017-11-29T22:55:20.735Z,0.48
2017-11-29T22:57:49.036Z,0.47
2017-11-29T23:00:28.091Z,0.37
2017-11-29T23:02:56.359Z,0.29
2017-11-29T23:05:24.625Z,0.22
2017-11-29T23:07:52.902Z,0.15
2017-11-29T23:10:21.157Z,0.16
2017-11-29T23:12:49.442Z,0.07
2017-11-29T23:15:17.731Z,-0.02
2017-11-29T23:17:46.079Z,-0.13
2017-11-29T23:20:14.377Z,-0.13
2017-11-29T23:22:42.711Z,-0.16
2017-11-29T23:25:11.034Z,-0.25
2017-11-29T23:27:39.370Z,-0.31
2017-11-29T23:30:07.716Z,-0.43
2017-11-29T23:32:36.801Z,-0.49
2017-11-29T23:35:05.140Z,-0.49
2017-11-29T23:37:33.475Z,-0.51
2017-11-29T23:40:01.817Z,-0.55
2017-11-29T23:42:30.201Z,-0.56
2017-11-29T23:44:58.516Z,-0.60
2017-11-29T23:47:27.639Z,-0.61
2017-11-29T23:49:55.951Z,-0.60
2017-11-29T23:52:24.247Z,-0.63
2017-11-29T23:54:53.372Z,-0.55
2017-11-29T23:57:21.636Z,-0.61
2017-11-29T23:59:50.722Z,-0.62
